Terminal Aerodrome Forecast
Issued by NWS

Home | Current Version | Previous Version | Text Only | Print | Product List | Glossary Off
Versions: 1 2 3 4 5 6 7 8 9 10 11 12 13 14 15 16 17

000
FTUS45 KGGW 271700
TAFSDY
TAF
KSDY 271725Z 2718/2818 VRB06KT P6SM VCSH SCT050 BKN060
      TEMPO 2718/2722 5SM -SN SCT015 OVC030
     FM280100 36004KT 4SM -SN SCT009 OVC020
     FM280500 02006KT 2SM -SN OVC008
      AMD LTD TO CLD VIS AND WIND=

USA.gov is the U.S. government's official web portal to all federal, state and local government web resources and services.